sensor_id;sensor_type;location;lat;lon;timestamp;temperature;humidity
13817;DHT22;6979;52.116;5.286;2023-04-12T00:01:58;13.30;99.90
13817;DHT22;6979;52.116;5.286;2023-04-12T00:04:25;13.30;99.90
13817;DHT22;6979;52.116;5.286;2023-04-12T00:06:53;13.20;99.90
13817;DHT22;6979;52.116;5.286;2023-04-12T00:09:20;13.20;99.90
13817;DHT22;6979;52.116;5.286;2023-04-12T00:11:46;13.10;99.90
13817;DHT22;6979;52.116;5.286;2023-04-12T00:14:15;13.10;99.90
13817;DHT22;6979;52.116;5.286;2023-04-12T00:16:41;13.00;99.90
13817;DHT22;6979;52.116;5.286;2023-04-12T00:19:09;13.00;99.90
13817;DHT22;6979;52.116;5.286;2023-04-12T00:21:36;12.90;99.90
13817;DHT22;6979;52.116;5.286;2023-04-12T00:24:03;12.90;99.90
13817;DHT22;6979;52.116;5.286;2023-04-12T00:26:30;12.80;99.90
13817;DHT22;6979;52.116;5.286;2023-04-12T00:28:56;12.80;99.90
13817;DHT22;6979;52.116;5.286;2023-04-12T00:31:24;12.70;99.90
13817;DHT22;6979;52.116;5.286;2023-04-12T00:33:51;12.70;99.90
13817;DHT22;6979;52.116;5.286;2023-04-12T00:36:18;12.70;99.90
13817;DHT22;6979;52.116;5.286;2023-04-12T00:38:45;12.60;99.90
13817;DHT22;6979;52.116;5.286;2023-04-12T00:41:12;12.60;99.90
13817;DHT22;6979;52.116;5.286;2023-04-12T00:43:40;12.60;99.90
13817;DHT22;6979;52.116;5.286;2023-04-12T00:46:07;12.50;99.90
13817;DHT22;6979;52.116;5.286;2023-04-12T00:48:35;12.40;99.90
13817;DHT22;6979;52.116;5.286;2023-04-12T00:51:03;12.40;99.90
13817;DHT22;6979;52.116;5.286;2023-04-12T00:53:32;12.40;99.90
13817;DHT22;6979;52.116;5.286;2023-04-12T00:55:59;12.30;99.90
13817;DHT22;6979;52.116;5.286;2023-04-12T00:58:28;12.30;99.90
13817;DHT22;6979;52.116;5.286;2023-04-12T01:00:59;12.30;99.90
13817;DHT22;6979;52.116;5.286;2023-04-12T01:03:26;12.30;99.90
13817;DHT22;6979;52.116;5.286;2023-04-12T01:06:06;12.30;99.90
13817;DHT22;6979;52.116;5.286;2023-04-12T01:08:40;12.30;99.90
13817;DHT22;6979;52.116;5.286;2023-04-12T01:11:14;12.30;99.90
13817;DHT22;6979;52.116;5.286;2023-04-12T01:13:48;12.20;99.90
13817;DHT22;6979;52.116;5.286;2023-04-12T01:16:25;12.20;99.90
13817;DHT22;6979;52.116;5.286;2023-04-12T01:18:57;12.20;99.90
13817;DHT22;6979;52.116;5.286;2023-04-12T01:21:32;12.20;99.90
13817;DHT22;6979;52.116;5.286;2023-04-12T01:24:12;12.20;99.90
13817;DHT22;6979;52.116;5.286;2023-04-12T01:26:43;12.20;99.90
13817;DHT22;6979;52.116;5.286;2023-04-12T01:29:14;12.20;99.90
13817;DHT22;6979;52.116;5.286;2023-04-12T01:31:49;12.20;99.90
13817;DHT22;6979;52.116;5.286;2023-04-12T01:34:19;12.20;99.90
13817;DHT22;6979;52.116;5.286;2023-04-12T01:36:47;12.10;99.90
13817;DHT22;6979;52.116;5.286;2023-04-12T01:39:16;12.10;99.90
13817;DHT22;6979;52.116;5.286;2023-04-12T01:41:43;12.10;99.90
13817;DHT22;6979;52.116;5.286;2023-04-12T01:44:15;12.20;99.90
13817;DHT22;6979;52.116;5.286;2023-04-12T01:46:42;12.20;99.90
13817;DHT22;6979;52.116;5.286;2023-04-12T01:49:11;12.20;99.90
13817;DHT22;6979;52.116;5.286;2023-04-12T01:51:48;12.20;99.90
13817;DHT22;6979;52.116;5.286;2023-04-12T01:54:21;12.20;99.90
13817;DHT22;6979;52.116;5.286;2023-04-12T01:56:53;12.20;99.90
13817;DHT22;6979;52.116;5.286;2023-04-12T01:59:26;12.20;99.90
13817;DHT22;6979;52.116;5.286;2023-04-12T02:01:53;12.20;99.90
13817;DHT22;6979;52.116;5.286;2023-04-12T02:04:21;12.20;99.90
13817;DHT22;6979;52.116;5.286;2023-04-12T02:06:50;12.20;99.90
13817;DHT22;6979;52.116;5.286;2023-04-12T02:09:17;12.20;99.90
13817;DHT22;6979;52.116;5.286;2023-04-12T02:11:46;12.20;99.90
13817;DHT22;6979;52.116;5.286;2023-04-12T02:14:14;12.20;99.90
13817;DHT22;6979;52.116;5.286;2023-04-12T02:16:44;12.20;99.90
13817;DHT22;6979;52.116;5.286;2023-04-12T02:19:12;12.20;99.90
13817;DHT22;6979;52.116;5.286;2023-04-12T02:21:42;12.20;99.90
13817;DHT22;6979;52.116;5.286;2023-04-12T02:24:12;12.20;99.90
13817;DHT22;6979;52.116;5.286;2023-04-12T02:26:39;12.20;99.90
13817;DHT22;6979;52.116;5.286;2023-04-12T02:29:08;12.20;99.90
13817;DHT22;6979;52.116;5.286;2023-04-12T02:31:36;12.20;99.90
13817;DHT22;6979;52.116;5.286;2023-04-12T02:34:07;12.20;99.90
13817;DHT22;6979;52.116;5.286;2023-04-12T02:36:37;12.20;99.90
13817;DHT22;6979;52.116;5.286;2023-04-12T02:39:04;12.20;99.90
13817;DHT22;6979;52.116;5.286;2023-04-12T02:41:33;12.20;99.90
13817;DHT22;6979;52.116;5.286;2023-04-12T02:44:00;12.20;99.90
13817;DHT22;6979;52.116;5.286;2023-04-12T02:46:29;12.20;99.90
13817;DHT22;6979;52.116;5.286;2023-04-12T02:48:58;12.20;99.90
13817;DHT22;6979;52.116;5.286;2023-04-12T02:51:39;12.20;99.90
13817;DHT22;6979;52.116;5.286;2023-04-12T02:54:07;12.20;99.90
13817;DHT22;6979;52.116;5.286;2023-04-12T02:56:48;12.20;99.90
13817;DHT22;6979;52.116;5.286;2023-04-12T02:59:32;12.20;99.90
13817;DHT22;6979;52.116;5.286;2023-04-12T03:02:13;12.20;99.90
13817;DHT22;6979;52.116;5.286;2023-04-12T03:04:40;12.20;99.90
13817;DHT22;6979;52.116;5.286;2023-04-12T03:07:15;12.20;99.90
13817;DHT22;6979;52.116;5.286;2023-04-12T03:09:48;12.20;99.90
13817;DHT22;6979;52.116;5.286;2023-04-12T03:12:17;12.20;99.90
13817;DHT22;6979;52.116;5.286;2023-04-12T03:14:57;12.20;99.90
13817;DHT22;6979;52.116;5.286;2023-04-12T03:17:25;12.20;99.90
13817;DHT22;6979;52.116;5.286;2023-04-12T03:19:54;12.20;99.90
13817;DHT22;6979;52.116;5.286;2023-04-12T03:22:24;12.20;99.90
13817;DHT22;6979;52.116;5.286;2023-04-12T03:24:57;12.20;99.90
13817;DHT22;6979;52.116;5.286;2023-04-12T03:27:24;12.20;99.90
13817;DHT22;6979;52.116;5.286;2023-04-12T03:29:52;12.20;99.90
13817;DHT22;6979;52.116;5.286;2023-04-12T03:32:22;12.10;99.90
13817;DHT22;6979;52.116;5.286;2023-04-12T03:34:49;12.10;99.90
13817;DHT22;6979;52.116;5.286;2023-04-12T03:37:22;12.10;99.90
13817;DHT22;6979;52.116;5.286;2023-04-12T03:39:50;12.10;99.90
13817;DHT22;6979;52.116;5.286;2023-04-12T03:42:21;12.10;99.90
13817;DHT22;6979;52.116;5.286;2023-04-12T03:44:50;12.10;99.90
13817;DHT22;6979;52.116;5.286;2023-04-12T03:47:19;12.10;99.90
13817;DHT22;6979;52.116;5.286;2023-04-12T03:49:47;12.00;99.90
13817;DHT22;6979;52.116;5.286;2023-04-12T03:52:14;12.00;99.90
13817;DHT22;6979;52.116;5.286;2023-04-12T03:54:43;12.00;99.90
13817;DHT22;6979;52.116;5.286;2023-04-12T03:57:16;12.00;99.90
13817;DHT22;6979;52.116;5.286;2023-04-12T03:59:46;12.00;99.90
13817;DHT22;6979;52.116;5.286;2023-04-12T04:02:16;12.00;99.90
13817;DHT22;6979;52.116;5.286;2023-04-12T04:04:46;12.00;99.90
13817;DHT22;6979;52.116;5.286;2023-04-12T04:07:22;12.10;99.90
13817;DHT22;6979;52.116;5.286;2023-04-12T04:09:52;12.00;99.90
13817;DHT22;6979;52.116;5.286;2023-04-12T04:12:21;12.00;99.90
13817;DHT22;6979;52.116;5.286;2023-04-12T04:14:52;12.00;99.90
13817;DHT22;6979;52.116;5.286;2023-04-12T04:17:37;12.00;99.90
13817;DHT22;6979;52.116;5.286;2023-04-12T04:20:05;12.00;99.90
13817;DHT22;6979;52.116;5.286;2023-04-12T04:22:35;12.00;99.90
13817;DHT22;6979;52.116;5.286;2023-04-12T04:25:03;11.90;99.90
13817;DHT22;6979;52.116;5.286;2023-04-12T04:27:36;12.00;99.90
13817;DHT22;6979;52.116;5.286;2023-04-12T04:30:05;11.90;99.90
13817;DHT22;6979;52.116;5.286;2023-04-12T04:32:34;12.00;99.90
13817;DHT22;6979;52.116;5.286;2023-04-12T04:35:01;11.90;99.90
13817;DHT22;6979;52.116;5.286;2023-04-12T04:37:38;12.00;99.90
13817;DHT22;6979;52.116;5.286;2023-04-12T04:40:06;12.00;99.90
13817;DHT22;6979;52.116;5.286;2023-04-12T04:42:37;11.90;99.90
13817;DHT22;6979;52.116;5.286;2023-04-12T04:45:05;11.90;99.90
13817;DHT22;6979;52.116;5.286;2023-04-12T04:47:39;11.90;99.90
13817;DHT22;6979;52.116;5.286;2023-04-12T04:50:07;11.90;99.90
13817;DHT22;6979;52.116;5.286;2023-04-12T04:52:34;11.90;99.90
13817;DHT22;6979;52.116;5.286;2023-04-12T04:55:07;11.90;99.90
13817;DHT22;6979;52.116;5.286;2023-04-12T04:57:36;11.90;99.90
13817;DHT22;6979;52.116;5.286;2023-04-12T05:00:06;11.90;99.90
13817;DHT22;6979;52.116;5.286;2023-04-12T05:02:39;11.90;99.90
13817;DHT22;6979;52.116;5.286;2023-04-12T05:05:09;12.00;99.90
13817;DHT22;6979;52.116;5.286;2023-04-12T05:07:38;12.00;99.90
13817;DHT22;6979;52.116;5.286;2023-04-12T05:10:09;12.00;99.90
13817;DHT22;6979;52.116;5.286;2023-04-12T05:12:39;12.00;99.90
13817;DHT22;6979;52.116;5.286;2023-04-12T05:15:11;12.00;99.90
13817;DHT22;6979;52.116;5.286;2023-04-12T05:17:40;12.00;99.90
13817;DHT22;6979;52.116;5.286;2023-04-12T05:20:10;12.00;99.90
13817;DHT22;6979;52.116;5.286;2023-04-12T05:22:37;12.00;99.90
13817;DHT22;6979;52.116;5.286;2023-04-12T05:25:05;12.00;99.90
13817;DHT22;6979;52.116;5.286;2023-04-12T05:27:43;12.00;99.90
13817;DHT22;6979;52.116;5.286;2023-04-12T05:30:15;12.00;99.90
13817;DHT22;6979;52.116;5.286;2023-04-12T05:32:43;12.00;99.90
13817;DHT22;6979;52.116;5.286;2023-04-12T05:35:14;12.10;99.90
13817;DHT22;6979;52.116;5.286;2023-04-12T05:37:42;12.10;99.90
13817;DHT22;6979;52.116;5.286;2023-04-12T05:40:10;12.10;99.90
13817;DHT22;6979;52.116;5.286;2023-04-12T05:42:38;12.10;99.90
13817;DHT22;6979;52.116;5.286;2023-04-12T05:45:06;12.10;99.90
13817;DHT22;6979;52.116;5.286;2023-04-12T05:47:39;12.10;99.90
13817;DHT22;6979;52.116;5.286;2023-04-12T05:50:10;12.10;99.90
13817;DHT22;6979;52.116;5.286;2023-04-12T05:52:40;12.10;99.90
13817;DHT22;6979;52.116;5.286;2023-04-12T05:55:28;12.20;99.90
13817;DHT22;6979;52.116;5.286;2023-04-12T05:57:57;12.20;99.90
13817;DHT22;6979;52.116;5.286;2023-04-12T06:00:26;12.20;99.90
13817;DHT22;6979;52.116;5.286;2023-04-12T06:02:54;12.20;99.90
13817;DHT22;6979;52.116;5.286;2023-04-12T06:05:23;12.20;99.90
13817;DHT22;6979;52.116;5.286;2023-04-12T06:10:40;12.30;99.90
13817;DHT22;6979;52.116;5.286;2023-04-12T06:13:19;12.30;99.90
13817;DHT22;6979;52.116;5.286;2023-04-12T06:16:16;12.30;99.90
13817;DHT22;6979;52.116;5.286;2023-04-12T06:18:44;12.30;99.90
13817;DHT22;6979;52.116;5.286;2023-04-12T06:21:12;12.30;99.90
13817;DHT22;6979;52.116;5.286;2023-04-12T06:23:42;12.40;99.90
13817;DHT22;6979;52.116;5.286;2023-04-12T06:26:53;12.40;99.90
13817;DHT22;6979;52.116;5.286;2023-04-12T06:29:20;12.40;99.90
13817;DHT22;6979;52.116;5.286;2023-04-12T06:31:47;12.40;99.90
13817;DHT22;6979;52.116;5.286;2023-04-12T06:34:16;12.50;99.90
13817;DHT22;6979;52.116;5.286;2023-04-12T06:36:43;12.50;99.90
13817;DHT22;6979;52.116;5.286;2023-04-12T06:39:12;12.50;99.90
13817;DHT22;6979;52.116;5.286;2023-04-12T06:41:42;12.50;99.90
13817;DHT22;6979;52.116;5.286;2023-04-12T06:44:16;12.60;99.90
13817;DHT22;6979;52.116;5.286;2023-04-12T06:46:43;12.60;99.90
13817;DHT22;6979;52.116;5.286;2023-04-12T06:49:09;12.70;99.90
13817;DHT22;6979;52.116;5.286;2023-04-12T06:51:38;12.70;99.90
13817;DHT22;6979;52.116;5.286;2023-04-12T06:54:05;12.70;99.90
13817;DHT22;6979;52.116;5.286;2023-04-12T06:56:47;12.70;99.90
13817;DHT22;6979;52.116;5.286;2023-04-12T06:59:14;12.80;99.90
13817;DHT22;6979;52.116;5.286;2023-04-12T07:01:41;12.80;99.90
13817;DHT22;6979;52.116;5.286;2023-04-12T07:04:07;12.80;99.90
13817;DHT22;6979;52.116;5.286;2023-04-12T07:06:35;12.80;99.90
13817;DHT22;6979;52.116;5.286;2023-04-12T07:09:09;12.80;99.90
13817;DHT22;6979;52.116;5.286;2023-04-12T07:11:45;12.90;99.90
13817;DHT22;6979;52.116;5.286;2023-04-12T07:14:13;12.90;99.90
13817;DHT22;6979;52.116;5.286;2023-04-12T07:16:41;12.90;99.90
13817;DHT22;6979;52.116;5.286;2023-04-12T07:19:08;12.90;99.90
13817;DHT22;6979;52.116;5.286;2023-04-12T07:21:35;13.00;99.90
13817;DHT22;6979;52.116;5.286;2023-04-12T07:24:03;13.00;99.90
13817;DHT22;6979;52.116;5.286;2023-04-12T07:26:30;13.00;99.90
13817;DHT22;6979;52.116;5.286;2023-04-12T07:29:00;13.10;99.90
13817;DHT22;6979;52.116;5.286;2023-04-12T07:31:29;13.00;99.90
13817;DHT22;6979;52.116;5.286;2023-04-12T07:33:56;13.10;99.90
13817;DHT22;6979;52.116;5.286;2023-04-12T07:36:24;13.10;99.90
13817;DHT22;6979;52.116;5.286;2023-04-12T07:38:52;13.10;99.90
13817;DHT22;6979;52.116;5.286;2023-04-12T07:41:22;13.20;99.90
13817;DHT22;6979;52.116;5.286;2023-04-12T07:43:49;13.20;99.90
13817;DHT22;6979;52.116;5.286;2023-04-12T07:46:16;13.20;99.90
13817;DHT22;6979;52.116;5.286;2023-04-12T07:48:46;13.20;99.90
13817;DHT22;6979;52.116;5.286;2023-04-12T07:51:13;13.30;99.90
13817;DHT22;6979;52.116;5.286;2023-04-12T07:53:40;13.30;99.90
13817;DHT22;6979;52.116;5.286;2023-04-12T07:56:12;13.30;99.90
13817;DHT22;6979;52.116;5.286;2023-04-12T07:58:41;13.30;99.90
13817;DHT22;6979;52.116;5.286;2023-04-12T08:01:11;13.30;99.90
13817;DHT22;6979;52.116;5.286;2023-04-12T08:03:37;13.40;99.90
13817;DHT22;6979;52.116;5.286;2023-04-12T08:06:05;13.40;99.90
13817;DHT22;6979;52.116;5.286;2023-04-12T08:08:32;13.40;99.90
13817;DHT22;6979;52.116;5.286;2023-04-12T08:10:59;13.50;99.90
13817;DHT22;6979;52.116;5.286;2023-04-12T08:13:27;13.50;99.90
13817;DHT22;6979;52.116;5.286;2023-04-12T08:15:56;13.60;99.90
13817;DHT22;6979;52.116;5.286;2023-04-12T08:18:23;13.60;99.90
13817;DHT22;6979;52.116;5.286;2023-04-12T08:20:50;13.70;99.90
13817;DHT22;6979;52.116;5.286;2023-04-12T08:23:17;13.70;99.90
13817;DHT22;6979;52.116;5.286;2023-04-12T08:25:44;13.80;99.90
13817;DHT22;6979;52.116;5.286;2023-04-12T08:28:11;13.90;99.90
13817;DHT22;6979;52.116;5.286;2023-04-12T08:30:38;14.00;99.90
13817;DHT22;6979;52.116;5.286;2023-04-12T08:33:06;14.00;99.90
13817;DHT22;6979;52.116;5.286;2023-04-12T08:35:33;14.10;99.90
13817;DHT22;6979;52.116;5.286;2023-04-12T08:37:59;14.20;99.90
13817;DHT22;6979;52.116;5.286;2023-04-12T08:40:33;14.30;99.90
13817;DHT22;6979;52.116;5.286;2023-04-12T08:43:01;14.30;99.90
13817;DHT22;6979;52.116;5.286;2023-04-12T08:45:28;14.40;99.90
13817;DHT22;6979;52.116;5.286;2023-04-12T08:47:58;14.50;99.90
13817;DHT22;6979;52.116;5.286;2023-04-12T08:50:28;14.60;99.90
13817;DHT22;6979;52.116;5.286;2023-04-12T08:52:55;14.60;99.90
13817;DHT22;6979;52.116;5.286;2023-04-12T08:55:22;14.60;99.90
13817;DHT22;6979;52.116;5.286;2023-04-12T08:57:51;14.60;99.90
13817;DHT22;6979;52.116;5.286;2023-04-12T09:00:19;14.70;99.90
13817;DHT22;6979;52.116;5.286;2023-04-12T09:02:46;14.70;99.90
13817;DHT22;6979;52.116;5.286;2023-04-12T09:05:13;14.80;99.90
13817;DHT22;6979;52.116;5.286;2023-04-12T09:07:41;14.80;99.90
13817;DHT22;6979;52.116;5.286;2023-04-12T09:10:08;14.90;99.90
13817;DHT22;6979;52.116;5.286;2023-04-12T09:12:44;15.00;99.90
13817;DHT22;6979;52.116;5.286;2023-04-12T09:15:12;15.10;99.90
13817;DHT22;6979;52.116;5.286;2023-04-12T09:17:40;15.30;99.90
13817;DHT22;6979;52.116;5.286;2023-04-12T09:20:22;15.40;99.90
13817;DHT22;6979;52.116;5.286;2023-04-12T09:22:52;15.50;99.90
13817;DHT22;6979;52.116;5.286;2023-04-12T09:25:35;15.60;99.90
13817;DHT22;6979;52.116;5.286;2023-04-12T09:28:03;15.70;99.90
13817;DHT22;6979;52.116;5.286;2023-04-12T09:30:40;15.70;99.90
13817;DHT22;6979;52.116;5.286;2023-04-12T09:33:10;15.80;99.90
13817;DHT22;6979;52.116;5.286;2023-04-12T09:35:38;15.90;99.90
13817;DHT22;6979;52.116;5.286;2023-04-12T09:38:09;15.90;99.90
13817;DHT22;6979;52.116;5.286;2023-04-12T09:40:37;16.00;99.90
13817;DHT22;6979;52.116;5.286;2023-04-12T09:43:06;16.00;99.90
13817;DHT22;6979;52.116;5.286;2023-04-12T09:45:34;16.00;99.90
13817;DHT22;6979;52.116;5.286;2023-04-12T09:48:04;16.00;99.90
13817;DHT22;6979;52.116;5.286;2023-04-12T09:50:32;16.00;99.90
13817;DHT22;6979;52.116;5.286;2023-04-12T09:53:01;16.00;99.90
13817;DHT22;6979;52.116;5.286;2023-04-12T09:55:31;15.90;99.90
13817;DHT22;6979;52.116;5.286;2023-04-12T09:58:01;15.90;99.90
13817;DHT22;6979;52.116;5.286;2023-04-12T10:00:30;15.80;99.90
13817;DHT22;6979;52.116;5.286;2023-04-12T10:02:59;15.80;99.90
13817;DHT22;6979;52.116;5.286;2023-04-12T10:05:26;15.70;99.90
13817;DHT22;6979;52.116;5.286;2023-04-12T10:07:53;15.70;99.90
13817;DHT22;6979;52.116;5.286;2023-04-12T10:10:21;15.70;99.90
13817;DHT22;6979;52.116;5.286;2023-04-12T10:12:50;15.70;99.90
13817;DHT22;6979;52.116;5.286;2023-04-12T10:15:17;15.60;99.90
13817;DHT22;6979;52.116;5.286;2023-04-12T10:17:51;15.60;99.90
13817;DHT22;6979;52.116;5.286;2023-04-12T10:21:05;15.70;99.90
13817;DHT22;6979;52.116;5.286;2023-04-12T10:23:27;15.70;99.90
13817;DHT22;6979;52.116;5.286;2023-04-12T10:25:58;15.70;99.90
13817;DHT22;6979;52.116;5.286;2023-04-12T10:28:27;15.80;99.90
13817;DHT22;6979;52.116;5.286;2023-04-12T10:30:56;15.80;99.90
13817;DHT22;6979;52.116;5.286;2023-04-12T10:33:25;15.70;99.90
13817;DHT22;6979;52.116;5.286;2023-04-12T10:35:55;15.70;99.90
13817;DHT22;6979;52.116;5.286;2023-04-12T10:38:22;15.60;99.90
13817;DHT22;6979;52.116;5.286;2023-04-12T10:41:15;15.60;99.90
13817;DHT22;6979;52.116;5.286;2023-04-12T10:43:44;15.50;99.90
13817;DHT22;6979;52.116;5.286;2023-04-12T10:46:48;15.40;99.90
13817;DHT22;6979;52.116;5.286;2023-04-12T10:49:16;15.30;99.90
13817;DHT22;6979;52.116;5.286;2023-04-12T10:52:11;15.20;99.90
13817;DHT22;6979;52.116;5.286;2023-04-12T10:54:39;15.20;99.90
13817;DHT22;6979;52.116;5.286;2023-04-12T10:57:43;15.30;99.90
13817;DHT22;6979;52.116;5.286;2023-04-12T11:00:14;15.30;99.90
13817;DHT22;6979;52.116;5.286;2023-04-12T11:03:06;15.40;99.90
13817;DHT22;6979;52.116;5.286;2023-04-12T11:05:58;15.40;99.90
13817;DHT22;6979;52.116;5.286;2023-04-12T11:08:58;15.40;99.90
13817;DHT22;6979;52.116;5.286;2023-04-12T11:11:26;15.40;99.90
13817;DHT22;6979;52.116;5.286;2023-04-12T11:13:54;15.40;99.90
13817;DHT22;6979;52.116;5.286;2023-04-12T11:16:23;15.40;99.90
13817;DHT22;6979;52.116;5.286;2023-04-12T11:18:50;15.40;99.90
13817;DHT22;6979;52.116;5.286;2023-04-12T11:21:18;15.50;99.90
13817;DHT22;6979;52.116;5.286;2023-04-12T11:23:45;15.50;99.90
13817;DHT22;6979;52.116;5.286;2023-04-12T11:26:18;15.50;99.90
13817;DHT22;6979;52.116;5.286;2023-04-12T11:28:45;15.50;99.90
13817;DHT22;6979;52.116;5.286;2023-04-12T11:31:12;15.50;99.90
13817;DHT22;6979;52.116;5.286;2023-04-12T11:33:41;15.40;99.90
13817;DHT22;6979;52.116;5.286;2023-04-12T11:36:09;15.40;99.90
13817;DHT22;6979;52.116;5.286;2023-04-12T11:38:38;15.50;99.90
13817;DHT22;6979;52.116;5.286;2023-04-12T11:41:07;15.50;99.90
13817;DHT22;6979;52.116;5.286;2023-04-12T11:43:35;15.50;99.90
13817;DHT22;6979;52.116;5.286;2023-04-12T11:46:03;15.60;99.90
13817;DHT22;6979;52.116;5.286;2023-04-12T11:48:31;15.60;99.90
13817;DHT22;6979;52.116;5.286;2023-04-12T11:50:59;15.70;99.90
13817;DHT22;6979;52.116;5.286;2023-04-12T11:53:26;15.80;99.90
13817;DHT22;6979;52.116;5.286;2023-04-12T11:55:57;15.90;99.90
13817;DHT22;6979;52.116;5.286;2023-04-12T11:58:25;15.90;99.90
13817;DHT22;6979;52.116;5.286;2023-04-12T12:00:53;16.00;99.90
13817;DHT22;6979;52.116;5.286;2023-04-12T12:03:22;16.10;99.90
13817;DHT22;6979;52.116;5.286;2023-04-12T12:05:49;16.10;99.90
13817;DHT22;6979;52.116;5.286;2023-04-12T12:08:18;16.20;99.90
13817;DHT22;6979;52.116;5.286;2023-04-12T12:10:45;16.20;99.90
13817;DHT22;6979;52.116;5.286;2023-04-12T12:13:13;16.30;99.90
13817;DHT22;6979;52.116;5.286;2023-04-12T12:15:42;16.30;99.90
13817;DHT22;6979;52.116;5.286;2023-04-12T12:18:10;16.30;99.90
13817;DHT22;6979;52.116;5.286;2023-04-12T12:20:41;16.40;99.90
13817;DHT22;6979;52.116;5.286;2023-04-12T12:23:28;16.40;99.90
13817;DHT22;6979;52.116;5.286;2023-04-12T12:25:56;16.40;99.90
13817;DHT22;6979;52.116;5.286;2023-04-12T12:28:23;16.50;99.90
13817;DHT22;6979;52.116;5.286;2023-04-12T12:30:52;16.50;99.90
13817;DHT22;6979;52.116;5.286;2023-04-12T12:33:19;16.50;99.90
13817;DHT22;6979;52.116;5.286;2023-04-12T12:35:46;16.50;99.90
13817;DHT22;6979;52.116;5.286;2023-04-12T12:38:13;16.50;99.90
13817;DHT22;6979;52.116;5.286;2023-04-12T12:40:41;16.50;99.90
13817;DHT22;6979;52.116;5.286;2023-04-12T12:43:17;16.50;99.90
13817;DHT22;6979;52.116;5.286;2023-04-12T12:45:47;16.40;99.90
13817;DHT22;6979;52.116;5.286;2023-04-12T12:48:16;16.50;99.90
13817;DHT22;6979;52.116;5.286;2023-04-12T12:50:45;16.40;99.90
13817;DHT22;6979;52.116;5.286;2023-04-12T12:53:12;16.40;99.90
13817;DHT22;6979;52.116;5.286;2023-04-12T12:55:39;16.40;99.90
13817;DHT22;6979;52.116;5.286;2023-04-12T12:58:08;16.40;99.90
13817;DHT22;6979;52.116;5.286;2023-04-12T13:00:35;16.30;99.90
13817;DHT22;6979;52.116;5.286;2023-04-12T13:03:02;16.30;99.90
13817;DHT22;6979;52.116;5.286;2023-04-12T13:05:28;16.40;99.90
13817;DHT22;6979;52.116;5.286;2023-04-12T13:07:55;16.40;99.90
13817;DHT22;6979;52.116;5.286;2023-04-12T13:10:22;16.40;99.10
13817;DHT22;6979;52.116;5.286;2023-04-12T13:12:51;16.40;99.90
13817;DHT22;6979;52.116;5.286;2023-04-12T13:15:19;16.30;99.90
13817;DHT22;6979;52.116;5.286;2023-04-12T13:17:46;16.30;99.70
13817;DHT22;6979;52.116;5.286;2023-04-12T13:20:13;16.30;99.90
13817;DHT22;6979;52.116;5.286;2023-04-12T13:22:40;16.30;99.80
13817;DHT22;6979;52.116;5.286;2023-04-12T13:25:08;16.20;99.40
13817;DHT22;6979;52.116;5.286;2023-04-12T13:27:35;16.20;99.90
13817;DHT22;6979;52.116;5.286;2023-04-12T13:30:02;16.30;99.90
13817;DHT22;6979;52.116;5.286;2023-04-12T13:32:31;16.30;99.90
13817;DHT22;6979;52.116;5.286;2023-04-12T13:34:58;16.30;99.90
13817;DHT22;6979;52.116;5.286;2023-04-12T13:37:25;16.40;99.00
13817;DHT22;6979;52.116;5.286;2023-04-12T13:39:52;16.40;99.70
13817;DHT22;6979;52.116;5.286;2023-04-12T13:42:19;16.40;99.90
13817;DHT22;6979;52.116;5.286;2023-04-12T13:44:47;16.40;99.90
13817;DHT22;6979;52.116;5.286;2023-04-12T13:47:15;16.50;99.90
13817;DHT22;6979;52.116;5.286;2023-04-12T13:49:43;16.50;99.90
13817;DHT22;6979;52.116;5.286;2023-04-12T13:52:11;16.60;99.90
13817;DHT22;6979;52.116;5.286;2023-04-12T13:54:37;16.70;99.90
13817;DHT22;6979;52.116;5.286;2023-04-12T13:57:05;16.80;99.50
13817;DHT22;6979;52.116;5.286;2023-04-12T13:59:32;16.90;99.90
13817;DHT22;6979;52.116;5.286;2023-04-12T14:02:00;17.00;99.90
13817;DHT22;6979;52.116;5.286;2023-04-12T14:04:29;17.10;99.80
13817;DHT22;6979;52.116;5.286;2023-04-12T14:06:58;17.10;99.90
13817;DHT22;6979;52.116;5.286;2023-04-12T14:09:26;17.20;99.90
13817;DHT22;6979;52.116;5.286;2023-04-12T14:11:58;17.30;99.90
13817;DHT22;6979;52.116;5.286;2023-04-12T14:14:26;17.30;99.50
13817;DHT22;6979;52.116;5.286;2023-04-12T14:16:54;17.40;99.50
13817;DHT22;6979;52.116;5.286;2023-04-12T14:19:22;17.30;99.00
13817;DHT22;6979;52.116;5.286;2023-04-12T14:21:50;17.20;99.10
13817;DHT22;6979;52.116;5.286;2023-04-12T14:24:19;17.10;98.40
13817;DHT22;6979;52.116;5.286;2023-04-12T14:26:46;17.00;99.00
13817;DHT22;6979;52.116;5.286;2023-04-12T14:29:14;16.80;99.90
13817;DHT22;6979;52.116;5.286;2023-04-12T14:31:41;16.70;99.90
13817;DHT22;6979;52.116;5.286;2023-04-12T14:34:08;16.60;99.90
13817;DHT22;6979;52.116;5.286;2023-04-12T14:36:35;16.40;99.90
13817;DHT22;6979;52.116;5.286;2023-04-12T14:39:03;16.40;99.90
13817;DHT22;6979;52.116;5.286;2023-04-12T14:41:31;16.30;99.90
13817;DHT22;6979;52.116;5.286;2023-04-12T14:43:58;16.20;99.90
13817;DHT22;6979;52.116;5.286;2023-04-12T14:46:26;16.20;99.90
13817;DHT22;6979;52.116;5.286;2023-04-12T14:48:53;16.20;99.90
13817;DHT22;6979;52.116;5.286;2023-04-12T14:51:19;16.30;99.90
13817;DHT22;6979;52.116;5.286;2023-04-12T14:53:46;16.30;99.90
13817;DHT22;6979;52.116;5.286;2023-04-12T14:56:20;16.30;99.90
13817;DHT22;6979;52.116;5.286;2023-04-12T14:58:49;16.40;99.90
13817;DHT22;6979;52.116;5.286;2023-04-12T15:01:18;16.50;99.90
13817;DHT22;6979;52.116;5.286;2023-04-12T15:03:45;16.60;99.90
13817;DHT22;6979;52.116;5.286;2023-04-12T15:06:12;16.60;99.90
13817;DHT22;6979;52.116;5.286;2023-04-12T15:08:42;16.70;99.90
13817;DHT22;6979;52.116;5.286;2023-04-12T15:11:09;16.70;99.90
13817;DHT22;6979;52.116;5.286;2023-04-12T15:13:39;16.70;99.90
13817;DHT22;6979;52.116;5.286;2023-04-12T15:16:13;16.60;99.90
13817;DHT22;6979;52.116;5.286;2023-04-12T15:18:40;16.60;99.90
13817;DHT22;6979;52.116;5.286;2023-04-12T15:21:08;16.50;99.90
13817;DHT22;6979;52.116;5.286;2023-04-12T15:23:35;16.40;99.90
13817;DHT22;6979;52.116;5.286;2023-04-12T15:26:05;16.40;99.90
13817;DHT22;6979;52.116;5.286;2023-04-12T15:28:35;16.30;99.90
13817;DHT22;6979;52.116;5.286;2023-04-12T15:31:02;16.20;99.90
13817;DHT22;6979;52.116;5.286;2023-04-12T15:33:30;16.20;99.90
13817;DHT22;6979;52.116;5.286;2023-04-12T15:36:00;16.20;99.90
13817;DHT22;6979;52.116;5.286;2023-04-12T15:38:27;16.20;99.90
13817;DHT22;6979;52.116;5.286;2023-04-12T15:40:58;16.20;99.90
13817;DHT22;6979;52.116;5.286;2023-04-12T15:43:26;16.20;99.90
13817;DHT22;6979;52.116;5.286;2023-04-12T15:45:54;16.20;99.90
13817;DHT22;6979;52.116;5.286;2023-04-12T15:48:22;16.20;99.90
13817;DHT22;6979;52.116;5.286;2023-04-12T15:50:51;16.20;99.90
13817;DHT22;6979;52.116;5.286;2023-04-12T15:53:20;16.20;99.90
13817;DHT22;6979;52.116;5.286;2023-04-12T15:55:47;16.30;99.90
13817;DHT22;6979;52.116;5.286;2023-04-12T15:58:19;16.30;99.90
13817;DHT22;6979;52.116;5.286;2023-04-12T16:00:47;16.30;99.90
13817;DHT22;6979;52.116;5.286;2023-04-12T16:03:14;16.30;99.90
13817;DHT22;6979;52.116;5.286;2023-04-12T16:05:44;16.30;99.90